Metar-ilmailun säätiedot     EFOU Oulu Airport
Lämpötila
-1°C Lämpötila
-1°C Kastepiste
100% Kosteus



Tuuli
0 M/S
1 MPH
2 KM/H
1 KTS



Tyyni
P
Nykyiset olosuhteet

Heikkoa Kuuroja, Lumisadetta Heikkoa Kuuroja, Lumisadetta
Paine 1005.76 (hPa) - 29.7 (inHg)
Näkyvyys 4.3 (maili) - 7 (km)
Lentokenttä
Lentokentän koodi EFOU

Sijainti: Oulu Airport
Etäisyys:: 83 (km)

Metar:
EFOU 210350Z AUTO VRB01KT 7000 -SHSN OVC003 M01/M01 Q1006

Aika: 21-02-2024 03:50 EET